Time;durP1;ratioP1;P1;durP2;ratioP2;P2;SDS_P1;SDS_P2;PMS_P1;PMS_P2;Temp;Humidity;BMP_temperature;BMP_pressure;BME280_temperature;BME280_humidity;BME280_pressure;Samples;Min_cycle;Max_cycle;Signal;HPM_P1;HPM_P2
2023/02/28 00:00:50;;;;;;;13.30;5.03;;;-2.60;99.90;;;-4.45;91.19;102794.16;4993296;28;20029;-75
2023/02/28 00:03:16;;;;;;;12.80;4.95;;;-2.60;99.90;;;-4.44;91.51;102795.94;5000661;28;20091;-74
2023/02/28 00:05:42;;;;;;;23.83;8.60;;;-2.60;99.90;;;-4.47;92.77;102796.69;5010895;28;20038;-75
2023/02/28 00:08:09;;;;;;;15.80;5.75;;;-2.50;99.90;;;-4.42;93.73;102790.06;5010336;28;20040;-75
2023/02/28 00:10:34;;;;;;;17.33;5.93;;;-2.50;99.90;;;-4.36;94.07;102797.22;5002343;28;20034;-75
2023/02/28 00:13:05;;;;;;;15.82;5.00;;;-2.50;99.90;;;-4.31;94.98;102800.00;5010106;28;20112;-75
2023/02/28 00:15:32;;;;;;;15.73;5.03;;;-2.40;99.90;;;-4.29;95.85;102803.53;5007338;28;20050;-75
2023/02/28 00:17:57;;;;;;;11.80;4.78;;;-2.40;99.90;;;-4.23;96.26;102798.63;5001830;28;20494;-75
2023/02/28 00:20:24;;;;;;;14.77;5.30;;;-2.40;99.90;;;-4.23;96.58;102796.97;4990806;28;20109;-75
2023/02/28 00:22:52;;;;;;;16.92;6.03;;;-2.40;99.90;;;-4.22;96.19;102795.28;5009803;28;20045;-75
2023/02/28 00:25:23;;;;;;;14.30;5.18;;;-2.40;99.90;;;-4.21;96.81;102804.75;4984523;28;20433;-75
2023/02/28 00:27:50;;;;;;;14.40;5.38;;;-2.40;99.90;;;-4.25;96.55;102801.16;5011005;28;20465;-75
2023/02/28 00:30:20;;;;;;;13.73;5.03;;;-2.40;99.90;;;-4.33;96.48;102805.06;4990891;28;20613;-75
2023/02/28 00:32:46;;;;;;;27.75;10.13;;;-2.50;99.90;;;-4.43;97.04;102808.84;5006500;28;20033;-75
2023/02/28 00:35:12;;;;;;;25.63;11.15;;;-2.40;99.90;;;-4.46;98.14;102802.72;4975718;28;20038;-74
2023/02/28 00:37:39;;;;;;;24.75;8.85;;;-2.50;99.90;;;-4.39;98.80;102805.63;4999437;28;20045;-75
2023/02/28 00:40:06;;;;;;;33.88;11.63;;;-2.40;99.90;;;-4.37;99.35;102810.84;5010187;28;20557;-74
2023/02/28 00:42:33;;;;;;;14.35;5.10;;;-2.40;99.90;;;-4.41;100.00;102814.09;5006531;28;21342;-75
2023/02/28 00:44:59;;;;;;;41.35;11.48;;;-2.50;99.90;;;-4.31;100.00;102821.44;4997932;28;20034;-75
2023/02/28 00:47:25;;;;;;;40.67;12.13;;;-2.50;99.90;;;-4.34;100.00;102821.31;5010314;28;20034;-74
2023/02/28 00:49:51;;;;;;;19.13;6.20;;;-2.50;99.90;;;-4.36;100.00;102815.22;4992182;28;20121;-75
2023/02/28 00:52:17;;;;;;;14.10;5.38;;;-2.50;99.90;;;-4.41;99.45;102819.22;4991594;28;20026;-74
2023/02/28 00:54:43;;;;;;;18.40;6.03;;;-2.60;99.90;;;-4.41;99.38;102817.53;5008330;28;20032;-74
2023/02/28 00:57:08;;;;;;;23.60;7.40;;;-2.60;99.90;;;-4.43;98.96;102818.28;5009342;28;20022;-75
2023/02/28 00:59:35;;;;;;;38.75;11.98;;;-2.60;99.90;;;-4.55;99.17;102821.16;4993209;28;20037;-74
2023/02/28 01:02:00;;;;;;;374.45;98.05;;;-2.70;99.90;;;-4.62;99.16;102821.63;4982358;28;20030;-75
2023/02/28 01:04:26;;;;;;;86.85;26.65;;;-2.70;99.90;;;-4.60;99.79;102826.06;5011724;28;20044;-75
2023/02/28 01:06:52;;;;;;;69.60;21.08;;;-2.70;99.90;;;-4.55;99.16;102824.59;5005601;28;20033;-75
2023/02/28 01:09:19;;;;;;;62.75;20.00;;;-2.60;99.90;;;-4.50;100.00;102826.50;4983054;28;20080;-75
2023/02/28 01:11:45;;;;;;;51.67;13.73;;;-2.60;99.90;;;-4.49;100.00;102829.16;5004925;28;20030;-74
2023/02/28 01:14:15;;;;;;;41.50;12.55;;;-2.70;99.90;;;-4.57;100.00;102826.19;4990451;28;20084;-74
2023/02/28 01:16:41;;;;;;;28.77;8.65;;;-2.70;99.90;;;-4.69;99.54;102822.16;5007853;28;20563;-76
2023/02/28 01:19:07;;;;;;;15.05;6.00;;;-2.10;99.90;;;-4.80;99.38;102809.63;5008112;28;20045;-75
2023/02/28 01:21:34;;;;;;;15.68;5.82;;;-2.90;99.90;;;-4.86;97.83;102808.44;4981099;28;20029;-75
2023/02/28 01:24:00;;;;;;;9.73;4.38;;;-3.00;99.90;;;-4.91;97.86;102804.78;4978022;28;20100;-74
2023/02/28 01:26:26;;;;;;;8.63;3.78;;;-3.00;99.90;;;-4.96;97.37;102796.84;5009015;28;20030;-75
2023/02/28 01:28:53;;;;;;;11.35;3.47;;;-3.10;99.90;;;-5.01;97.04;102811.13;4985972;28;20042;-75
2023/02/28 01:31:21;;;;;;;5.78;3.17;;;-3.20;99.90;;;-5.09;95.77;102803.03;5009162;28;20064;-75
2023/02/28 01:33:48;;;;;;;7.78;3.65;;;-3.20;99.90;;;-5.16;95.90;102804.44;4996937;28;20033;-75
2023/02/28 01:36:18;;;;;;;11.13;3.45;;;-3.30;99.90;;;-5.19;95.62;102808.50;5007554;28;20120;-75
2023/02/28 01:38:44;;;;;;;10.30;3.75;;;-3.30;99.90;;;-5.24;94.26;102808.28;5009304;28;20184;-75
2023/02/28 01:41:23;;;;;;;11.55;4.40;;;-3.40;99.90;;;-5.28;94.44;102814.06;5003804;28;20062;-75
2023/02/28 01:43:49;;;;;;;17.88;4.90;;;-3.40;99.90;;;-5.32;94.32;102814.69;4984091;28;20030;-75
2023/02/28 01:46:15;;;;;;;10.65;4.38;;;-3.40;99.90;;;-5.35;93.38;102806.84;5008969;28;20042;-75
2023/02/28 01:49:01;;;;;;;13.88;6.13;;;-3.40;99.90;;;-5.31;94.35;102826.75;4978267;28;20021;-75
2023/02/28 01:51:45;;;;;;;19.30;6.95;;;-3.40;99.90;;;-5.21;94.89;102813.56;4987055;28;20033;-74
2023/02/28 01:54:16;;;;;;;17.70;7.57;;;-3.30;99.90;;;-5.15;95.41;102811.31;5011001;28;20046;-75
2023/02/28 01:57:05;;;;;;;17.48;5.97;;;-2.20;99.90;;;-5.04;97.19;102811.84;4991324;28;20140;-75
2023/02/28 01:59:51;;;;;;;14.35;5.53;;;-3.10;99.90;;;-4.97;98.32;102815.63;4990985;28;20882;-74
2023/02/28 02:02:20;;;;;;;20.20;5.55;;;-3.10;99.90;;;-4.91;98.78;102812.50;4983035;28;20070;-75
2023/02/28 02:05:04;;;;;;;13.65;5.70;;;-3.00;99.90;;;-4.89;100.00;102806.63;4991341;28;20042;-73
2023/02/28 02:07:34;;;;;;;11.02;4.72;;;-2.90;99.90;;;-4.89;100.00;102796.34;4993080;28;20034;-75
2023/02/28 02:10:16;;;;;;;12.82;6.07;;;-2.90;99.90;;;-4.82;100.00;102805.22;4995219;28;20440;-75
2023/02/28 02:13:12;;;;;;;39.00;10.10;;;-2.80;99.90;;;-4.74;100.00;102804.81;5012060;28;20095;-75
2023/02/28 02:16:29;;;;;;;11.43;4.50;;;-2.90;99.90;;;-4.79;100.00;102808.84;4992044;28;20041;-75
2023/02/28 02:19:26;;;;;;;9.23;4.68;;;-3.00;99.90;;;-4.90;100.00;102804.88;5002456;28;20733;-75
2023/02/28 02:22:33;;;;;;;13.68;5.35;;;-3.10;99.90;;;-5.06;100.00;102810.03;4994174;28;20037;-75
2023/02/28 02:25:21;;;;;;;16.30;5.50;;;-3.20;99.90;;;-5.23;100.00;102804.91;4980564;28;20059;-75
2023/02/28 02:28:36;;;;;;;11.30;4.65;;;-3.30;99.90;;;-5.30;100.00;102805.38;5011312;28;20160;-75
2023/02/28 02:31:28;;;;;;;10.38;4.20;;;-3.40;99.90;;;-5.40;99.59;102803.13;5011672;28;20033;-74
2023/02/28 02:34:29;;;;;;;13.23;4.32;;;-3.50;99.90;;;-5.53;98.68;102799.03;4990491;28;20049;-74
2023/02/28 02:37:13;;;;;;;10.45;4.10;;;-3.60;99.90;;;-5.61;97.68;102813.19;5011085;28;20490;-75
2023/02/28 02:40:03;;;;;;;13.52;5.43;;;-3.70;99.90;;;-5.70;96.88;102818.72;4985550;28;20560;-75
2023/02/28 02:42:48;;;;;;;95.38;27.45;;;-3.80;99.90;;;-5.74;96.56;102810.75;4978785;28;20034;-75
2023/02/28 02:45:35;;;;;;;16.35;6.35;;;-3.90;99.90;;;-5.74;97.02;102815.88;5011199;28;20033;-74
2023/02/28 02:48:03;;;;;;;26.40;7.68;;;-3.80;99.90;;;-5.78;96.97;102818.28;5012469;28;20033;-75
2023/02/28 02:50:56;;;;;;;57.58;16.77;;;-3.90;99.90;;;-5.79;96.70;102818.19;5012627;28;20116;-75
2023/02/28 02:53:40;;;;;;;46.97;16.10;;;-3.90;99.90;;;-5.78;97.06;102819.97;4992534;28;20405;-74
2023/02/28 02:56:07;;;;;;;22.15;9.20;;;-3.90;99.90;;;-5.74;96.29;102810.75;4988102;28;20091;-75
2023/02/28 02:58:41;;;;;;;53.25;16.05;;;-3.80;99.90;;;-5.72;96.95;102820.31;5013079;28;20037;-75
2023/02/28 03:01:12;;;;;;;36.33;12.65;;;-3.80;99.90;;;-5.73;96.25;102818.53;4984704;28;20042;-75
2023/02/28 03:03:38;;;;;;;11.77;5.30;;;-3.80;99.90;;;-5.73;96.62;102809.97;5010245;28;20120;-75
2023/02/28 03:06:05;;;;;;;18.48;6.72;;;-3.90;99.90;;;-5.74;96.94;102815.88;5008814;28;20034;-75
2023/02/28 03:08:37;;;;;;;23.73;8.45;;;-3.90;99.90;;;-5.77;96.47;102814.03;5010391;28;20056;-75
2023/02/28 03:11:13;;;;;;;17.58;6.07;;;-3.90;99.90;;;-5.80;96.55;102809.63;5008660;28;20080;-75
2023/02/28 03:13:54;;;;;;;18.02;6.53;;;-3.90;99.90;;;-5.78;96.76;102815.72;5010321;28;20030;-75
2023/02/28 03:16:57;;;;;;;19.55;6.28;;;-3.80;99.90;;;-5.71;97.49;102814.38;5006383;28;20033;-75
2023/02/28 03:20:07;;;;;;;11.48;5.18;;;-3.80;99.90;;;-5.60;98.64;102822.63;5000955;28;20124;-75
2023/02/28 03:23:05;;;;;;;10.85;5.68;;;-3.70;99.90;;;-5.51;98.35;102822.25;5008397;28;20034;-74
2023/02/28 03:26:05;;;;;;;13.30;5.28;;;-3.70;99.90;;;-5.51;98.57;102814.53;4993331;28;20042;-75
2023/02/28 03:29:05;;;;;;;14.43;5.95;;;-3.60;99.90;;;-5.52;98.79;102817.94;5006299;28;20076;-75
2023/02/28 03:31:38;;;;;;;12.35;5.53;;;-3.60;99.90;;;-5.53;99.47;102818.72;5005901;28;20041;-75
2023/02/28 03:34:19;;;;;;;14.32;5.22;;;-3.60;99.90;;;-5.56;99.74;102804.91;4978100;28;20037;-75
2023/02/28 03:36:53;;;;;;;13.05;6.18;;;-3.70;99.90;;;-5.58;99.34;102805.63;4977737;28;20128;-75
2023/02/28 03:39:32;;;;;;;14.35;6.07;;;-3.70;99.90;;;-5.58;99.73;102803.94;4976413;28;20034;-75
2023/02/28 03:42:04;;;;;;;17.70;6.88;;;-3.70;99.90;;;-5.56;98.75;102804.03;4981345;28;20033;-74
2023/02/28 03:44:34;;;;;;;16.73;6.03;;;-3.70;99.90;;;-5.58;99.19;102798.81;4984912;28;20083;-75
2023/02/28 03:47:23;;;;;;;16.15;5.55;;;-3.70;99.90;;;-5.61;98.90;102808.94;5001509;28;20030;-76
2023/02/28 03:49:58;;;;;;;16.20;6.32;;;-3.80;99.90;;;-5.68;98.99;102801.72;4991991;28;20038;-75
2023/02/28 03:52:32;;;;;;;34.17;8.48;;;-3.80;99.90;;;-5.72;98.47;102807.47;4980500;28;21428;-75
2023/02/28 03:55:06;;;;;;;28.38;8.23;;;-3.80;99.90;;;-5.78;98.44;102805.47;4984001;28;20045;-74
2023/02/28 03:57:49;;;;;;;28.90;7.45;;;-3.80;99.90;;;-5.75;99.26;102807.31;4984723;28;20068;-75
2023/02/28 04:00:32;;;;;;;21.63;6.93;;;-3.90;99.90;;;-5.77;98.96;102812.38;4961912;28;20048;-75
2023/02/28 04:02:58;;;;;;;20.42;6.22;;;-3.90;99.90;;;-5.77;99.00;102811.47;4991965;28;20038;-75
2023/02/28 04:05:25;;;;;;;16.65;5.72;;;-3.90;99.90;;;-5.80;98.22;102816.44;4999926;28;20125;-75
2023/02/28 04:07:51;;;;;;;14.88;4.57;;;-4.00;99.90;;;-5.88;98.29;102813.47;5012431;28;20040;-75
2023/02/28 04:10:18;;;;;;;11.63;4.57;;;-4.00;99.90;;;-5.93;97.86;102814.03;5010323;28;20049;-75
2023/02/28 04:12:44;;;;;;;11.93;4.80;;;-4.00;99.90;;;-5.96;98.32;102813.88;4989669;28;20084;-75
2023/02/28 04:15:11;;;;;;;11.75;5.15;;;-4.10;99.90;;;-6.04;97.55;102804.09;4990587;28;20800;-75
2023/02/28 04:17:37;;;;;;;14.90;4.55;;;-4.20;99.90;;;-6.10;97.72;102811.44;4982172;28;20056;-75
2023/02/28 04:20:09;;;;;;;12.70;5.28;;;-4.20;99.90;;;-6.15;97.45;102806.84;4993557;28;20045;-75
2023/02/28 04:22:37;;;;;;;15.38;5.55;;;-4.20;99.90;;;-6.19;97.26;102810.94;4993213;28;20042;-75
2023/02/28 04:25:05;;;;;;;7.32;3.83;;;-4.30;99.90;;;-6.24;96.72;102803.00;4974077;28;20095;-74
2023/02/28 04:27:31;;;;;;;8.68;3.85;;;-4.30;99.90;;;-6.28;96.07;102810.44;4983459;28;20036;-75
2023/02/28 04:29:57;;;;;;;12.93;4.57;;;-4.40;99.90;;;-6.31;95.94;102810.25;4995679;28;20045;-75
2023/02/28 04:32:22;;;;;;;19.98;5.57;;;-4.40;99.90;;;-6.33;96.57;102804.16;4983216;28;20044;-75
2023/02/28 04:34:48;;;;;;;17.83;5.55;;;-4.40;99.90;;;-6.30;95.81;102801.78;4999189;28;20910;-75
2023/02/28 04:37:14;;;;;;;19.88;7.07;;;-4.40;99.90;;;-6.30;95.83;102804.34;4999309;28;20034;-75
2023/02/28 04:39:43;;;;;;;19.48;7.50;;;-4.30;99.90;;;-6.26;97.35;102793.47;5000960;28;20524;-75
2023/02/28 04:42:10;;;;;;;13.43;6.32;;;-4.30;99.90;;;-6.17;97.19;102800.78;4993621;28;20026;-75
2023/02/28 04:44:35;;;;;;;15.77;6.85;;;-4.20;99.90;;;-6.07;98.08;102808.16;4983407;28;20042;-75
2023/02/28 04:47:01;;;;;;;14.80;6.18;;;-4.20;99.90;;;-6.00;98.62;102812.84;4981621;28;20445;-75
2023/02/28 04:49:28;;;;;;;15.55;7.30;;;-4.10;99.90;;;-5.95;99.00;102808.84;5010384;28;20025;-75
2023/02/28 04:51:53;;;;;;;23.95;8.38;;;-4.00;99.90;;;-5.90;98.64;102806.47;4982509;28;20045;-75
2023/02/28 04:54:19;;;;;;;23.23;8.25;;;-4.00;99.90;;;-5.85;100.00;102813.63;4987822;28;20417;-75
2023/02/28 04:56:49;;;;;;;19.15;7.95;;;-3.90;99.90;;;-5.84;100.00;102804.25;4964814;28;20041;-77
2023/02/28 04:59:15;;;;;;;19.98;7.57;;;-4.00;99.90;;;-5.85;100.00;102799.91;4998622;28;20069;-75
2023/02/28 05:01:45;;;;;;;15.45;7.32;;;-4.00;99.90;;;-5.87;99.75;102804.09;4982014;28;20096;-75
2023/02/28 05:04:10;;;;;;;16.05;7.68;;;-4.00;99.90;;;-5.86;99.78;102813.53;4983722;28;20068;-75
2023/02/28 05:06:39;;;;;;;19.80;7.72;;;-4.00;99.90;;;-5.86;100.00;102811.84;4990065;28;20046;-75
2023/02/28 05:09:05;;;;;;;17.92;7.18;;;;;;;-5.86;100.00;102803.28;4943913;28;20044;-75
2023/02/28 05:11:34;;;;;;;18.65;7.90;;;-4.00;99.90;;;-5.86;100.00;102805.84;4990634;28;20059;-75
2023/02/28 05:14:12;;;;;;;20.83;6.68;;;-4.00;99.90;;;-5.88;100.00;102803.19;4987819;28;20034;-75
2023/02/28 05:16:39;;;;;;;22.60;7.38;;;-4.00;99.90;;;-5.93;99.91;102807.19;4999720;28;20041;-75
2023/02/28 05:19:05;;;;;;;22.20;7.90;;;-4.00;99.90;;;-5.93;100.00;102812.34;5001270;28;20429;-75
2023/02/28 05:21:38;;;;;;;15.75;7.35;;;-4.10;99.90;;;-5.96;100.00;102812.22;4999012;28;20041;-75
2023/02/28 05:24:08;;;;;;;10.85;5.20;;;-4.10;99.90;;;-6.03;100.00;102808.41;4972927;28;20038;-75
2023/02/28 05:26:41;;;;;;;13.80;5.50;;;-4.10;99.90;;;-6.09;99.86;102807.19;4964924;28;20030;-75
2023/02/28 05:29:09;;;;;;;12.70;5.50;;;-4.20;99.90;;;-6.16;99.58;102818.78;4951772;28;20123;-75
2023/02/28 05:31:35;;;;;;;16.73;5.68;;;-4.30;99.90;;;-6.19;100.00;102813.50;4947996;28;20041;-75
2023/02/28 05:34:03;;;;;;;10.52;4.88;;;-4.30;99.90;;;-6.21;98.83;102820.22;5011703;28;20446;-75
2023/02/28 05:36:30;;;;;;;13.40;5.80;;;-4.30;99.90;;;-6.25;99.28;102810.59;4989248;28;20029;-75
2023/02/28 05:38:56;;;;;;;13.65;6.57;;;-4.40;99.90;;;-6.25;98.86;102818.28;4980188;28;20049;-75
2023/02/28 05:41:22;;;;;;;16.73;6.78;;;-4.40;99.90;;;-6.27;99.68;102819.88;4982184;28;20100;-75
2023/02/28 05:43:48;;;;;;;14.45;5.72;;;-4.40;99.90;;;-6.28;99.01;102820.69;4991114;28;20514;-75
2023/02/28 05:46:15;;;;;;;18.08;6.88;;;-4.30;99.90;;;-6.25;100.00;102818.28;4966942;28;20045;-75
2023/02/28 05:48:45;;;;;;;13.43;5.50;;;-4.40;99.90;;;-6.22;100.00;102827.06;4966061;28;20095;-75
2023/02/28 05:51:11;;;;;;;17.98;5.60;;;-4.30;99.90;;;-6.16;100.00;102831.63;4996286;28;20116;-75
2023/02/28 05:53:37;;;;;;;24.20;6.70;;;-4.20;99.90;;;-6.07;100.00;102827.03;4973135;28;20804;-75
2023/02/28 05:56:04;;;;;;;13.48;6.00;;;-4.20;99.90;;;-6.02;100.00;102834.97;5007412;28;20111;-75
2023/02/28 05:58:30;;;;;;;10.10;5.28;;;-4.20;99.90;;;-6.01;100.00;102837.59;4996328;28;20033;-75
2023/02/28 06:01:00;;;;;;;16.77;6.65;;;-4.20;99.90;;;-6.02;100.00;102830.72;4999498;28;20040;-75
2023/02/28 06:03:26;;;;;;;20.00;6.57;;;-4.20;99.90;;;-6.03;100.00;102831.50;4972911;28;21358;-75
2023/02/28 06:05:53;;;;;;;14.30;5.35;;;-4.20;99.90;;;-6.03;100.00;102841.75;5000509;28;20391;-75
2023/02/28 06:08:18;;;;;;;17.50;5.40;;;-4.20;99.90;;;-6.06;100.00;102846.72;4991293;28;20038;-75
2023/02/28 06:10:45;;;;;;;12.77;5.88;;;-4.20;99.90;;;-6.06;100.00;102836.47;5000290;28;20044;-75
2023/02/28 06:13:12;;;;;;;12.48;5.05;;;-4.20;99.90;;;-6.06;99.56;102840.72;4980434;28;20042;-75
2023/02/28 06:15:38;;;;;;;11.82;5.35;;;-4.30;99.90;;;-6.12;99.51;102843.81;4998577;28;20456;-75
2023/02/28 06:18:04;;;;;;;17.48;5.97;;;-4.30;99.90;;;-6.11;99.43;102835.34;4988263;28;20052;-75
2023/02/28 06:20:31;;;;;;;14.32;5.55;;;-4.30;99.90;;;-6.07;98.20;102847.53;4990294;28;20037;-75
2023/02/28 06:23:00;;;;;;;17.92;5.40;;;-4.30;99.90;;;-6.01;98.49;102845.28;4977902;28;20053;-75
2023/02/28 06:25:27;;;;;;;10.05;5.03;;;-4.30;99.90;;;-5.95;97.96;102849.00;4985798;28;20041;-74
2023/02/28 06:27:55;;;;;;;10.50;4.93;;;-4.20;99.90;;;-5.92;98.08;102852.56;4991474;28;20068;-75
2023/02/28 06:30:26;;;;;;;18.15;6.15;;;-4.20;99.90;;;-5.78;97.92;102853.34;4999840;28;20407;-74
2023/02/28 06:32:53;;;;;;;12.50;6.32;;;-4.10;99.90;;;-5.48;96.99;102866.06;4997699;28;20038;-74
2023/02/28 06:35:19;;;;;;;19.02;7.63;;;-4.00;99.90;;;-5.10;95.76;102864.63;5009866;28;20034;-74
2023/02/28 06:37:46;;;;;;;22.45;8.57;;;-3.90;99.90;;;-4.88;95.45;102862.38;5014432;28;20037;-75
2023/02/28 06:40:13;;;;;;;23.00;9.02;;;-3.70;99.90;;;-4.08;95.73;102868.88;5013173;28;20112;-75
2023/02/28 06:42:39;;;;;;;17.92;8.93;;;-3.40;99.90;;;-3.81;93.95;102868.41;4974444;28;20101;-75
2023/02/28 06:45:08;;;;;;;20.15;9.45;;;-3.10;99.90;;;-3.52;93.58;102865.47;5000304;28;20025;-75
2023/02/28 06:47:36;;;;;;;20.05;8.32;;;-2.80;99.90;;;-2.62;92.45;102871.94;4985170;28;20517;-75
2023/02/28 06:50:02;;;;;;;18.50;7.75;;;-2.30;99.90;;;0.22;89.13;102890.03;4986556;28;20042;-75
2023/02/28 06:52:28;;;;;;;16.60;7.70;;;-1.40;99.90;;;4.47;81.04;102905.47;4992690;28;20095;-75
2023/02/28 06:54:59;;;;;;;10.95;5.40;;;0.10;99.90;;;8.14;69.13;102906.84;4984130;28;20426;-76
2023/02/28 06:57:31;;;;;;;9.50;4.47;;;2.00;99.90;;;10.92;59.28;102922.44;4993310;28;20040;-75
2023/02/28 07:00:02;;;;;;;10.57;4.43;;;3.90;99.90;;;13.01;53.08;102956.72;5008955;28;20147;-75
2023/02/28 07:02:28;;;;;;;11.68;4.15;;;5.70;99.90;;;14.47;48.42;102981.50;5002301;28;20030;-75
2023/02/28 07:04:54;;;;;;;11.98;4.35;;;7.30;99.90;;;15.69;45.60;102992.94;5004816;28;20066;-75
2023/02/28 07:07:21;;;;;;;9.75;3.83;;;8.50;99.90;;;16.04;43.07;103003.38;5011370;28;20041;-76
2023/02/28 07:09:47;;;;;;;7.55;3.83;;;9.40;99.90;;;16.17;41.82;102999.38;4985438;28;20050;-75
2023/02/28 07:12:12;;;;;;;10.90;4.10;;;10.10;99.90;;;16.45;41.18;103017.03;5004215;28;20041;-76
2023/02/28 07:14:38;;;;;;;8.95;4.15;;;10.60;99.90;;;16.98;40.09;103035.56;5010525;28;20033;-76
2023/02/28 07:17:06;;;;;;;9.38;4.07;;;11.30;99.90;;;17.68;39.03;103042.63;4992216;28;20052;-75
2023/02/28 07:19:32;;;;;;;7.78;3.90;;;12.00;99.90;;;18.41;37.88;103059.22;4981199;28;20097;-75
2023/02/28 07:21:58;;;;;;;7.65;3.63;;;12.70;99.90;;;19.09;37.08;103066.94;4976962;28;20037;-75
2023/02/28 07:24:28;;;;;;;8.90;4.15;;;13.40;99.90;;;19.68;36.15;103073.97;5009409;28;20042;-75
2023/02/28 07:26:53;;;;;;;6.82;3.42;;;14.10;99.90;;;20.16;35.51;103077.88;4996617;28;20056;-76
2023/02/28 07:29:19;;;;;;;6.93;3.40;;;14.80;99.90;;;20.34;34.94;103078.75;4992390;28;20046;-75
2023/02/28 07:31:46;;;;;;;7.05;3.83;;;15.30;97.50;;;20.01;34.87;103075.97;4992087;28;20049;-75
2023/02/28 07:34:13;;;;;;;7.10;3.65;;;15.60;96.00;;;20.13;34.46;103083.41;4991860;28;20552;-75
2023/02/28 07:36:39;;;;;;;10.63;4.57;;;15.90;97.10;;;20.24;34.80;103094.41;5009830;28;20033;-75
2023/02/28 07:39:05;;;;;;;8.57;3.75;;;16.10;94.30;;;19.64;34.68;103097.28;5008526;28;20042;-75
2023/02/28 07:41:33;;;;;;;10.60;3.95;;;16.00;94.00;;;19.08;34.84;103092.78;5011037;28;20033;-74
2023/02/28 07:43:59;;;;;;;7.65;4.05;;;16.10;94.20;;;19.23;35.04;103099.22;5007177;28;20452;-74
2023/02/28 07:46:28;;;;;;;8.18;4.20;;;16.30;94.90;;;19.64;35.02;103107.97;4992159;28;20117;-73
2023/02/28 07:48:54;;;;;;;4.10;2.97;;;16.70;95.30;;;19.99;34.62;103112.63;4999753;28;20030;-74
2023/02/28 07:51:22;;;;;;;4.28;2.80;;;17.30;95.20;;;20.58;34.49;103116.84;5000217;28;20724;-74
2023/02/28 07:53:48;;;;;;;4.15;2.75;;;17.90;95.00;;;21.00;34.14;103131.59;5011222;28;20026;-73
2023/02/28 07:56:13;;;;;;;5.57;3.03;;;18.50;94.10;;;21.04;33.68;103135.84;5008468;28;20128;-74
2023/02/28 07:58:39;;;;;;;6.30;3.53;;;18.90;92.00;;;20.79;33.73;103135.41;5010299;28;20648;-73
2023/02/28 08:01:10;;;;;;;4.55;2.22;;;19.00;90.70;;;20.34;33.64;103134.06;4992437;28;20099;-74
2023/02/28 08:03:37;;;;;;;13.30;9.93;;;19.10;91.40;;;20.16;34.10;103130.50;4983271;28;20140;-74
2023/02/28 08:06:05;;;;;;;6.43;2.75;;;19.10;90.60;;;19.94;34.06;103139.59;5010742;28;20092;-74
2023/02/28 08:08:31;;;;;;;9.07;3.15;;;19.20;91.10;;;19.89;34.36;103138.91;4990043;28;20113;-74
2023/02/28 08:11:02;;;;;;;6.50;3.50;;;19.40;91.30;;;20.28;33.98;103143.28;4993062;28;20107;-73
2023/02/28 08:13:30;;;;;;;7.43;3.75;;;19.90;91.30;;;20.71;34.22;103149.16;5008622;28;20041;-73
2023/02/28 08:15:56;;;;;;;5.70;3.05;;;20.40;88.60;;;21.03;33.49;103149.31;5006806;28;20037;-73
2023/02/28 08:18:23;;;;;;;6.68;2.92;;;20.70;90.30;;;21.16;33.77;103155.75;5001886;28;20091;-74
2023/02/28 08:20:49;;;;;;;7.85;3.45;;;21.10;89.70;;;21.33;33.54;103162.88;4991166;28;20030;-73
2023/02/28 08:23:15;;;;;;;6.15;2.90;;;21.50;89.10;;;21.49;33.55;103152.25;4990770;28;20076;-73
2023/02/28 08:25:41;;;;;;;6.88;3.08;;;21.80;88.10;;;21.62;33.11;103160.47;5008945;28;20037;-74
2023/02/28 08:28:06;;;;;;;7.03;3.28;;;22.00;85.70;;;21.65;32.83;103161.16;5010105;28;20052;-73
2023/02/28 08:30:32;;;;;;;5.00;3.10;;;22.20;85.40;;;21.64;32.93;103167.50;4993336;28;20117;-74
2023/02/28 08:32:58;;;;;;;7.35;3.53;;;22.40;84.00;;;21.58;32.99;103164.28;4991607;28;20034;-73
2023/02/28 08:35:24;;;;;;;6.22;3.28;;;22.40;83.20;;;21.45;32.91;103169.44;5001049;28;20149;-73
2023/02/28 08:37:50;;;;;;;5.45;3.33;;;22.50;83.10;;;21.34;32.95;103164.63;5009599;28;20032;-74
2023/02/28 08:40:17;;;;;;;3.90;2.42;;;22.50;81.90;;;21.31;33.08;103167.47;5008946;28;20517;-73
2023/02/28 08:42:46;;;;;;;6.70;3.05;;;22.50;81.10;;;21.23;33.21;103167.00;4998989;28;20107;-73
2023/02/28 08:45:14;;;;;;;4.40;2.70;;;22.40;80.60;;;20.93;33.17;103162.34;5007233;28;20030;-74
2023/02/28 08:47:40;;;;;;;6.75;2.75;;;22.30;79.20;;;20.52;33.67;103156.34;4993325;28;22294;-73
2023/02/28 08:50:07;;;;;;;5.72;2.78;;;22.10;81.10;;;20.42;33.99;103161.31;5012186;28;20060;-74
2023/02/28 08:52:33;;;;;;;5.82;2.50;;;21.90;79.40;;;20.36;33.92;103162.47;4989609;28;20041;-73
2023/02/28 08:54:59;;;;;;;3.35;2.35;;;21.80;81.30;;;20.13;34.25;103163.63;4972046;28;20033;-74
2023/02/28 08:57:28;;;;;;;6.20;2.92;;;21.60;81.10;;;19.79;34.27;103162.56;5006645;28;20491;-74
2023/02/28 08:59:54;;;;;;;3.85;1.98;;;21.40;81.30;;;19.52;34.67;103159.31;5009208;28;20413;-73
2023/02/28 09:02:20;;;;;;;3.63;2.30;;;21.10;82.10;;;19.33;34.83;103150.41;5011006;28;20025;-73
2023/02/28 09:04:46;;;;;;;5.18;2.33;;;20.90;81.50;;;19.15;34.98;103152.13;5009373;28;20061;-74
2023/02/28 09:07:12;;;;;;;6.85;2.47;;;20.70;82.30;;;19.03;35.22;103143.72;5007362;28;20036;-74
2023/02/28 09:09:53;;;;;;;3.38;1.90;;;20.50;82.60;;;18.75;35.88;103137.81;4990548;28;20037;-73
2023/02/28 09:12:24;;;;;;;5.85;1.80;;;20.10;82.40;;;18.35;36.15;103137.69;5011615;28;20033;-74
2023/02/28 09:14:53;;;;;;;3.97;1.80;;;19.70;82.30;;;17.79;36.46;103128.31;4998826;28;20117;-73
2023/02/28 09:17:20;;;;;;;4.40;2.00;;;19.10;83.50;;;17.02;37.34;103133.00;4989778;28;20037;-74
2023/02/28 09:19:49;;;;;;;4.90;2.08;;;18.50;85.10;;;16.77;37.98;103127.63;4989011;28;20041;-73
2023/02/28 09:22:15;;;;;;;5.38;2.38;;;18.10;86.40;;;16.61;38.51;103132.63;4990155;28;20034;-74
2023/02/28 09:24:44;;;;;;;2.65;1.73;;;17.80;87.90;;;16.48;38.78;103123.28;5008415;28;20068;-74
2023/02/28 09:27:16;;;;;;;4.75;2.50;;;17.50;88.00;;;16.28;39.09;103130.13;5011278;28;20528;-73
2023/02/28 09:29:42;;;;;;;6.35;2.15;;;17.20;88.80;;;16.01;39.44;103131.91;5008001;28;20053;-73
2023/02/28 09:32:08;;;;;;;6.80;1.90;;;16.80;89.80;;;15.75;40.14;103120.28;4991657;28;20037;-73
2023/02/28 09:34:37;;;;;;;4.32;1.88;;;16.50;90.20;;;15.46;40.47;103121.09;5002945;28;20042;-74
2023/02/28 09:37:06;;;;;;;6.30;2.15;;;16.00;90.50;;;15.19;40.81;103114.81;5008309;28;20091;-74
2023/02/28 09:39:35;;;;;;;5.50;2.00;;;15.50;91.50;;;14.73;41.90;103116.06;4983427;28;20035;-74
2023/02/28 09:42:04;;;;;;;3.05;1.30;;;15.00;91.50;;;14.25;42.42;103106.59;4984986;28;20041;-73
2023/02/28 09:44:44;;;;;;;4.60;1.98;;;14.50;92.40;;;13.58;43.83;103095.78;4983019;28;20049;-74
2023/02/28 09:47:35;;;;;;;4.72;2.20;;;13.90;92.40;;;12.76;45.15;103090.31;5011287;28;20045;-74
2023/02/28 09:50:41;;;;;;;4.90;1.58;;;13.40;93.40;;;11.90;46.86;103068.84;4991421;28;20038;-73
2023/02/28 09:53:34;;;;;;;5.40;1.70;;;12.80;93.60;;;11.26;47.51;103063.50;5006714;28;20441;-73
2023/02/28 09:56:25;;;;;;;7.28;1.50;;;12.40;94.40;;;10.79;48.38;103064.91;4984364;28;20509;-74
2023/02/28 09:59:18;;;;;;;5.10;2.00;;;12.00;94.80;;;10.42;49.58;103057.34;4992797;28;20379;-73
2023/02/28 10:02:03;;;;;;;6.47;1.65;;;11.70;95.50;;;10.20;50.09;103053.13;4997196;28;20647;-73
2023/02/28 10:05:02;;;;;;;4.70;1.60;;;11.30;97.10;;;9.70;52.51;103046.44;5001930;28;21497;-73
2023/02/28 10:07:58;;;;;;;2.85;1.30;;;11.00;97.70;;;9.47;52.66;103044.81;5011321;28;20029;-74
2023/02/28 10:11:05;;;;;;;4.70;1.38;;;10.80;97.10;;;9.33;52.61;103044.00;5004981;28;20030;-73
2023/02/28 10:13:41;;;;;;;2.80;1.38;;;10.70;96.70;;;9.17;51.67;103041.41;4995155;28;20037;-73
2023/02/28 10:16:55;;;;;;;5.70;1.13;;;10.50;97.10;;;9.07;51.74;103046.72;4986865;28;20117;-73
2023/02/28 10:19:52;;;;;;;4.15;1.38;;;10.50;96.80;;;8.94;52.22;103041.53;5006008;28;20034;-73
2023/02/28 10:23:00;;;;;;;12.13;1.30;;;10.20;97.30;;;8.80;53.08;103025.78;5011796;28;20422;-72
2023/02/28 10:25:30;;;;;;;2.33;0.90;;;10.20;97.40;;;8.76;52.71;103034.53;5011595;28;20042;-74
2023/02/28 10:28:19;;;;;;;8.35;1.33;;;10.10;97.50;;;8.76;52.54;103033.66;5004635;28;20035;-73